createdAt,value
2017-11-21T00:03:17.769Z,0.90
2017-11-21T00:10:35.224Z,0.97
2017-11-21T00:13:58.760Z,0.80
2017-11-21T00:17:22.235Z,1.00
2017-11-21T00:24:38.109Z,0.90
2017-11-21T00:28:01.611Z,0.80
2017-11-21T00:31:26.046Z,1.10
2017-11-21T00:34:49.503Z,1.00
2017-11-21T00:42:11.541Z,0.90
2017-11-21T00:45:35.799Z,0.93
2017-11-21T00:52:52.034Z,1.20
2017-11-21T00:56:15.494Z,1.50
2017-11-21T01:03:32.296Z,1.20
2017-11-21T01:10:50.301Z,0.97
2017-11-21T01:14:13.787Z,1.60
2017-11-21T01:17:37.260Z,1.20
2017-11-21T01:21:00.750Z,1.87
2017-11-21T01:24:24.215Z,1.90
2017-11-21T01:27:47.672Z,1.40
2017-11-21T01:31:11.154Z,1.90
2017-11-21T01:34:36.139Z,1.30
2017-11-21T01:37:59.635Z,1.40
2017-11-21T01:41:23.105Z,1.13
2017-11-21T01:52:26.182Z,1.20
2017-11-21T01:55:50.420Z,1.50
2017-11-21T01:59:13.904Z,1.40
2017-11-21T02:02:37.414Z,1.20
2017-11-21T02:09:55.558Z,1.27
2017-11-21T02:13:19.047Z,1.60
2017-11-21T02:16:43.422Z,1.37
2017-11-21T02:20:06.964Z,0.97
2017-11-21T02:23:30.419Z,1.20
2017-11-21T02:26:53.899Z,1.03
2017-11-21T02:30:18.192Z,0.97
2017-11-21T02:33:41.649Z,1.47
2017-11-21T02:37:05.108Z,1.10
2017-11-21T02:40:28.599Z,1.17
2017-11-21T02:43:52.084Z,1.23
2017-11-21T02:51:09.119Z,1.20
2017-11-21T02:54:32.581Z,1.70
2017-11-21T02:57:56.168Z,1.03
2017-11-21T03:01:19.648Z,0.90
2017-11-21T03:04:43.977Z,1.27
2017-11-21T03:08:07.751Z,1.47
2017-11-21T03:11:31.241Z,1.93
2017-11-21T03:14:54.807Z,1.53
2017-11-21T03:18:18.296Z,1.17
2017-11-21T03:21:54.379Z,1.23
2017-11-21T03:25:30.237Z,1.63
2017-11-21T03:28:53.735Z,1.33
2017-11-21T03:32:18.053Z,1.40
2017-11-21T03:35:41.531Z,1.77
2017-11-21T03:39:04.994Z,1.73
2017-11-21T03:42:28.476Z,1.93
2017-11-21T03:45:52.714Z,1.60
2017-11-21T04:04:46.023Z,1.40
2017-11-21T04:08:09.489Z,1.70
2017-11-21T04:11:32.955Z,1.57
2017-11-21T04:14:56.404Z,1.73
2017-11-21T04:18:19.847Z,1.90
2017-11-21T04:21:44.104Z,1.60
2017-11-21T04:25:07.593Z,1.43
2017-11-21T04:32:23.906Z,1.33
2017-11-21T04:35:47.408Z,1.37
2017-11-21T04:39:10.876Z,1.47
2017-11-21T04:42:34.341Z,1.17
2017-11-21T04:45:57.849Z,1.20
2017-11-21T04:49:22.163Z,1.40
2017-11-21T04:52:45.635Z,1.20
2017-11-21T04:56:09.153Z,1.40
2017-11-21T04:59:32.604Z,1.20
2017-11-21T05:02:56.076Z,1.30
2017-11-21T05:06:19.599Z,1.57
2017-11-21T05:09:43.095Z,0.83
2017-11-21T05:13:06.559Z,1.27
2017-11-21T05:16:30.204Z,1.40
2017-11-21T05:19:54.911Z,1.10
2017-11-21T05:23:19.158Z,0.90
2017-11-21T05:26:42.632Z,0.97
2017-11-21T05:37:53.177Z,1.00
2017-11-21T05:45:10.602Z,1.30
2017-11-21T05:48:34.059Z,1.00
2017-11-21T05:51:57.560Z,0.87
2017-11-21T05:55:21.041Z,1.10
2017-11-21T05:58:44.554Z,1.30
2017-11-21T06:02:08.787Z,0.93
2017-11-21T06:05:32.267Z,0.87
2017-11-21T06:08:55.728Z,1.17
2017-11-21T06:16:12.191Z,1.20
2017-11-21T06:19:35.660Z,1.03
2017-11-21T06:34:38.848Z,1.47
2017-11-21T06:38:02.472Z,1.00
2017-11-21T06:41:25.972Z,1.67
2017-11-21T06:44:49.447Z,1.70
2017-11-21T06:48:12.928Z,1.33
2017-11-21T06:51:36.392Z,1.20
2017-11-21T06:54:59.898Z,1.63
2017-11-21T06:58:24.176Z,1.50
2017-11-21T07:01:47.765Z,1.53
2017-11-21T07:05:11.995Z,1.97
2017-11-21T07:12:46.753Z,1.73
2017-11-21T07:20:03.301Z,1.83
2017-11-21T07:23:26.765Z,1.50
2017-11-21T07:26:50.266Z,2.40
2017-11-21T07:30:14.525Z,2.00
2017-11-21T07:33:38.016Z,1.87
2017-11-21T07:37:01.486Z,1.63
2017-11-21T07:40:24.967Z,2.10
2017-11-21T07:43:48.437Z,2.13
2017-11-21T07:47:11.915Z,2.00
2017-11-21T07:50:36.218Z,2.80
2017-11-21T07:53:59.702Z,2.03
2017-11-21T07:57:23.190Z,2.27
2017-11-21T08:00:47.436Z,2.37
2017-11-21T08:04:10.912Z,1.53
2017-11-21T08:07:34.388Z,2.40
2017-11-21T08:10:57.850Z,2.23
2017-11-21T08:14:21.336Z,2.17
2017-11-21T08:17:44.824Z,2.10
2017-11-21T08:21:08.302Z,2.07
2017-11-21T08:24:31.943Z,2.00
2017-11-21T08:27:55.424Z,2.30
2017-11-21T08:31:18.872Z,2.03
2017-11-21T08:34:42.344Z,2.50
2017-11-21T08:38:05.808Z,2.20
2017-11-21T08:41:30.579Z,1.90
2017-11-21T08:44:57.522Z,1.80
2017-11-21T08:48:21.756Z,1.97
2017-11-21T08:51:45.239Z,2.33
2017-11-21T08:55:08.735Z,2.00
2017-11-21T08:58:32.202Z,2.20
2017-11-21T09:01:55.676Z,1.83
2017-11-21T09:05:19.159Z,1.87
2017-11-21T09:08:42.623Z,2.30
2017-11-21T09:12:06.136Z,2.00
2017-11-21T09:15:29.726Z,1.80
2017-11-21T09:18:53.211Z,1.90
2017-11-21T09:22:16.662Z,3.27
2017-11-21T09:25:40.143Z,2.50
2017-11-21T09:29:03.637Z,2.10
2017-11-21T09:32:27.132Z,2.03
2017-11-21T09:35:50.571Z,1.93
2017-11-21T09:39:14.064Z,2.13
2017-11-21T09:42:37.565Z,2.00
2017-11-21T09:46:01.048Z,1.93
2017-11-21T09:49:25.308Z,1.73
2017-11-21T09:52:48.768Z,2.00
2017-11-21T09:56:12.235Z,1.70
2017-11-21T09:59:35.709Z,1.63
2017-11-21T10:02:59.256Z,1.83
2017-11-21T10:06:22.785Z,1.53
2017-11-21T10:09:46.286Z,2.17
2017-11-21T10:13:09.760Z,2.70
2017-11-21T10:16:33.235Z,1.73
2017-11-21T10:19:56.688Z,1.90
2017-11-21T10:23:20.940Z,1.70
2017-11-21T10:26:44.566Z,1.90
2017-11-21T10:30:08.045Z,1.90
2017-11-21T10:33:31.515Z,1.70
2017-11-21T10:36:55.029Z,2.00
2017-11-21T10:40:18.491Z,1.90
2017-11-21T10:43:41.950Z,1.70
2017-11-21T10:47:05.437Z,2.37
2017-11-21T10:50:28.928Z,1.77
2017-11-21T10:53:52.429Z,1.67
2017-11-21T10:57:15.928Z,1.63
2017-11-21T11:00:39.448Z,1.57
2017-11-21T11:04:02.976Z,1.30
2017-11-21T11:07:26.447Z,1.53
2017-11-21T11:10:49.910Z,1.30
2017-11-21T11:14:13.489Z,1.90
2017-11-21T11:17:36.963Z,1.70
2017-11-21T11:21:00.413Z,1.20
2017-11-21T11:24:24.676Z,1.10
2017-11-21T11:27:48.176Z,1.73
2017-11-21T11:31:11.621Z,1.30
2017-11-21T11:34:35.104Z,1.60
2017-11-21T11:37:58.582Z,1.70
2017-11-21T11:41:22.834Z,1.27
2017-11-21T11:44:46.303Z,1.17
2017-11-21T11:48:09.774Z,1.43
2017-11-21T11:51:33.311Z,1.00
2017-11-21T11:54:57.416Z,1.80
2017-11-21T11:58:20.948Z,1.63
2017-11-21T12:01:45.184Z,1.90
2017-11-21T12:05:08.768Z,1.10
2017-11-21T12:08:32.313Z,1.40
2017-11-21T12:11:55.781Z,1.20
2017-11-21T12:15:19.471Z,1.30
2017-11-21T12:18:42.933Z,1.30
2017-11-21T12:22:06.419Z,1.50
2017-11-21T12:25:29.934Z,2.10
2017-11-21T12:28:53.476Z,2.50
2017-11-21T12:32:17.015Z,2.50
2017-11-21T12:35:41.315Z,2.50
2017-11-21T12:39:04.825Z,2.20
2017-11-21T12:42:28.381Z,1.80
2017-11-21T12:45:51.849Z,1.20
2017-11-21T12:49:15.328Z,1.33
2017-11-21T12:52:38.808Z,0.90
2017-11-21T12:56:02.303Z,0.93
2017-11-21T12:59:25.779Z,1.00
2017-11-21T13:02:49.265Z,0.93
2017-11-21T13:06:13.516Z,1.03
2017-11-21T13:09:37.024Z,1.20
2017-11-21T13:13:01.920Z,1.40
2017-11-21T13:16:26.346Z,1.37
2017-11-21T13:19:50.593Z,0.90
2017-11-21T13:23:14.062Z,1.33
2017-11-21T13:26:39.051Z,1.37
2017-11-21T13:30:02.522Z,0.90
2017-11-21T13:33:26.016Z,1.50
2017-11-21T13:36:50.979Z,1.10
2017-11-21T13:40:14.466Z,1.30
2017-11-21T13:43:38.044Z,1.40
2017-11-21T13:47:01.502Z,1.50
2017-11-21T13:50:25.019Z,1.07
2017-11-21T13:53:48.474Z,1.07
2017-11-21T13:57:11.964Z,1.03
2017-11-21T14:00:35.447Z,1.17
2017-11-21T14:03:59.714Z,1.13
2017-11-21T14:07:23.182Z,1.23
2017-11-21T14:10:46.654Z,1.17
2017-11-21T14:14:10.123Z,1.33
2017-11-21T14:17:33.624Z,1.20
2017-11-21T14:20:57.092Z,1.10
2017-11-21T14:24:20.582Z,1.10
2017-11-21T14:27:44.899Z,1.40
2017-11-21T14:31:08.505Z,1.47
2017-11-21T14:34:31.963Z,1.10
2017-11-21T14:37:55.451Z,1.30
2017-11-21T14:41:18.936Z,1.10
2017-11-21T14:44:42.388Z,1.63
2017-11-21T14:48:05.923Z,1.00
2017-11-21T14:51:30.346Z,1.70
2017-11-21T14:54:53.806Z,1.57
2017-11-21T14:58:17.364Z,1.40
2017-11-21T15:01:40.865Z,1.83
2017-11-21T15:05:04.368Z,1.60
2017-11-21T15:08:28.612Z,1.60
2017-11-21T15:11:52.108Z,1.63
2017-11-21T15:15:15.716Z,1.40
2017-11-21T15:18:39.984Z,1.67
2017-11-21T15:22:03.468Z,1.40
2017-11-21T15:25:28.204Z,1.80
2017-11-21T15:28:51.681Z,1.07
2017-11-21T15:32:15.193Z,1.60
2017-11-21T15:35:38.681Z,1.30
2017-11-21T15:39:02.164Z,1.77
2017-11-21T15:42:26.487Z,1.33
2017-11-21T15:45:50.953Z,1.40
2017-11-21T15:49:14.569Z,1.90
2017-11-21T15:52:38.092Z,2.00
2017-11-21T15:56:02.350Z,1.80
2017-11-21T15:59:25.846Z,1.17
2017-11-21T16:02:49.361Z,1.87
2017-11-21T16:06:13.618Z,1.83
2017-11-21T16:09:37.154Z,1.25
2017-11-21T16:13:01.429Z,1.10
2017-11-21T16:16:26.390Z,1.50
2017-11-21T16:19:50.643Z,1.83
2017-11-21T16:23:14.180Z,1.50
2017-11-21T16:26:38.746Z,1.20
2017-11-21T16:30:03.087Z,1.93
2017-11-21T16:33:26.730Z,1.90
2017-11-21T16:36:50.305Z,1.63
2017-11-21T16:40:13.820Z,1.70
2017-11-21T16:43:37.314Z,1.90
2017-11-21T16:47:02.380Z,1.47
2017-11-21T16:50:25.902Z,1.70
2017-11-21T16:53:49.374Z,1.70
2017-11-21T16:57:13.665Z,1.60
2017-11-21T17:00:37.122Z,1.30
2017-11-21T17:04:00.610Z,1.20
2017-11-21T17:07:24.877Z,2.00
2017-11-21T17:10:48.336Z,1.13
2017-11-21T17:14:11.844Z,1.50
2017-11-21T17:17:35.364Z,1.40
2017-11-21T17:20:58.819Z,1.53
2017-11-21T17:24:23.095Z,1.70
2017-11-21T17:27:46.588Z,1.40
2017-11-21T17:31:10.830Z,1.87
2017-11-21T17:34:34.336Z,1.57
2017-11-21T17:37:57.798Z,1.70
2017-11-21T17:41:21.272Z,1.93
2017-11-21T17:44:45.540Z,1.70
2017-11-21T17:48:09.042Z,1.80
2017-11-21T17:51:32.529Z,2.30
2017-11-21T17:54:56.788Z,2.17
2017-11-21T17:58:20.303Z,1.60
2017-11-21T18:01:43.796Z,2.47
2017-11-21T18:05:07.308Z,2.00
2017-11-21T18:08:30.956Z,2.60
2017-11-21T18:11:54.472Z,2.80
2017-11-21T18:15:18.856Z,2.27
2017-11-21T18:18:42.345Z,2.60
2017-11-21T18:22:06.588Z,2.30
2017-11-21T18:25:30.100Z,2.40
2017-11-21T18:28:54.374Z,2.47
2017-11-21T18:32:17.890Z,2.27
2017-11-21T18:35:42.144Z,2.43
2017-11-21T18:39:06.399Z,1.80
2017-11-21T18:42:29.911Z,2.00
2017-11-21T18:45:54.155Z,2.30
2017-11-21T18:49:17.611Z,2.00
2017-11-21T18:52:41.142Z,1.87
2017-11-21T18:56:04.673Z,1.73
2017-11-21T18:59:28.240Z,2.07
2017-11-21T19:02:52.031Z,2.57
2017-11-21T19:06:15.533Z,2.00
2017-11-21T19:09:39.808Z,2.20
2017-11-21T19:13:03.308Z,2.70
2017-11-21T19:16:27.562Z,2.27
2017-11-21T19:19:51.084Z,2.50
2017-11-21T19:23:15.358Z,2.87
2017-11-21T19:26:39.681Z,2.23
2017-11-21T19:30:03.217Z,2.50
2017-11-21T19:33:26.739Z,2.20
2017-11-21T19:36:50.215Z,2.30
2017-11-21T19:40:13.751Z,2.40
2017-11-21T19:43:38.021Z,2.40
2017-11-21T19:47:01.748Z,2.30
2017-11-21T19:50:25.223Z,2.70
2017-11-21T19:53:48.908Z,2.20
2017-11-21T19:57:12.428Z,2.50
2017-11-21T20:00:36.717Z,2.90
2017-11-21T20:04:01.851Z,2.60
2017-11-21T20:07:26.117Z,2.60
2017-11-21T20:10:49.766Z,2.33
2017-11-21T20:14:13.283Z,3.33
2017-11-21T20:17:36.764Z,2.70
2017-11-21T20:21:00.313Z,2.83
2017-11-21T20:24:23.912Z,3.00
2017-11-21T20:27:48.172Z,2.07
2017-11-21T20:31:13.224Z,1.90
2017-11-21T20:34:36.891Z,2.40
2017-11-21T20:38:01.217Z,2.77
2017-11-21T20:41:24.709Z,2.73
2017-11-21T20:44:48.747Z,2.33
2017-11-21T20:48:12.239Z,2.43
2017-11-21T20:51:35.726Z,2.87
2017-11-21T20:54:59.221Z,2.60
2017-11-21T20:58:24.385Z,2.47
2017-11-21T21:01:47.875Z,2.70
2017-11-21T21:05:11.379Z,1.93
2017-11-21T21:08:34.880Z,2.67
2017-11-21T21:11:59.110Z,2.30
2017-11-21T21:19:15.903Z,2.87
2017-11-21T21:22:40.899Z,2.27
2017-11-21T21:26:04.378Z,2.60
2017-11-21T21:29:27.932Z,2.50
2017-11-21T21:32:51.373Z,2.50
2017-11-21T21:36:14.879Z,2.33
2017-11-21T21:39:39.114Z,2.80
2017-11-21T21:43:02.786Z,2.80
2017-11-21T21:46:27.030Z,3.20
2017-11-21T21:49:50.638Z,3.33
2017-11-21T21:53:14.854Z,2.73
2017-11-21T21:56:38.358Z,3.40
2017-11-21T22:00:01.845Z,2.60
2017-11-21T22:03:25.336Z,3.00
2017-11-21T22:06:49.583Z,2.83
2017-11-21T22:10:13.027Z,3.53
2017-11-21T22:13:36.558Z,3.10
2017-11-21T22:17:00.017Z,3.20
2017-11-21T22:20:23.505Z,2.90
2017-11-21T22:23:46.976Z,3.30
2017-11-21T22:27:11.248Z,3.10
2017-11-21T22:30:34.723Z,3.50
2017-11-21T22:33:58.292Z,3.00
2017-11-21T22:37:21.829Z,3.13
2017-11-21T22:40:45.492Z,3.13
2017-11-21T22:44:09.001Z,3.80
2017-11-21T22:47:32.576Z,2.67
2017-11-21T22:50:56.081Z,2.70
2017-11-21T22:54:20.305Z,3.27
2017-11-21T22:57:43.773Z,3.27
2017-11-21T23:01:07.301Z,3.00
2017-11-21T23:04:30.743Z,2.90
2017-11-21T23:07:54.259Z,3.00
2017-11-21T23:11:17.731Z,3.10
2017-11-21T23:14:41.953Z,2.70
2017-11-21T23:18:05.428Z,2.70
2017-11-21T23:21:29.009Z,3.37
2017-11-21T23:24:52.504Z,2.90
2017-11-21T23:28:16.000Z,3.40
2017-11-21T23:31:39.452Z,3.30
2017-11-21T23:35:02.952Z,2.50
2017-11-21T23:38:27.216Z,3.10
2017-11-21T23:41:50.693Z,2.67
2017-11-21T23:45:14.179Z,3.30
2017-11-21T23:48:38.473Z,3.33
2017-11-21T23:52:02.056Z,2.77
2017-11-21T23:55:25.580Z,2.90
2017-11-21T23:58:49.044Z,3.33
